sensor_id;sensor_type;location;lat;lon;timestamp;P1;durP1;ratioP1;P2;durP2;ratioP2
61756;SDS011;57225;61.460;24.060;2022-09-17T00:01:16;3.67;;;2.20;;
61756;SDS011;57225;61.460;24.060;2022-09-17T00:04:02;3.75;;;2.80;;
61756;SDS011;57225;61.460;24.060;2022-09-17T00:06:46;6.32;;;4.00;;
61756;SDS011;57225;61.460;24.060;2022-09-17T00:09:31;10.18;;;5.50;;
61756;SDS011;57225;61.460;24.060;2022-09-17T00:12:15;8.65;;;5.10;;
61756;SDS011;57225;61.460;24.060;2022-09-17T00:15:00;8.13;;;4.63;;
61756;SDS011;57225;61.460;24.060;2022-09-17T00:17:44;9.02;;;4.43;;
61756;SDS011;57225;61.460;24.060;2022-09-17T00:20:28;7.40;;;4.18;;
61756;SDS011;57225;61.460;24.060;2022-09-17T00:23:13;5.95;;;3.50;;
61756;SDS011;57225;61.460;24.060;2022-09-17T00:25:57;4.40;;;2.70;;
61756;SDS011;57225;61.460;24.060;2022-09-17T00:28:42;7.50;;;2.60;;
61756;SDS011;57225;61.460;24.060;2022-09-17T00:34:15;2.08;;;1.85;;
61756;SDS011;57225;61.460;24.060;2022-09-17T00:37:00;2.92;;;2.00;;
61756;SDS011;57225;61.460;24.060;2022-09-17T00:39:44;2.47;;;1.88;;
61756;SDS011;57225;61.460;24.060;2022-09-17T00:42:29;2.75;;;1.88;;
61756;SDS011;57225;61.460;24.060;2022-09-17T00:45:13;2.15;;;1.92;;
61756;SDS011;57225;61.460;24.060;2022-09-17T00:48:01;3.28;;;1.95;;
61756;SDS011;57225;61.460;24.060;2022-09-17T00:50:48;2.40;;;2.10;;
61756;SDS011;57225;61.460;24.060;2022-09-17T00:53:33;2.40;;;1.95;;
61756;SDS011;57225;61.460;24.060;2022-09-17T00:56:19;1.73;;;1.50;;
61756;SDS011;57225;61.460;24.060;2022-09-17T00:59:06;2.08;;;1.77;;
61756;SDS011;57225;61.460;24.060;2022-09-17T01:01:51;1.98;;;1.77;;
61756;SDS011;57225;61.460;24.060;2022-09-17T01:04:35;2.03;;;1.63;;
61756;SDS011;57225;61.460;24.060;2022-09-17T01:07:28;3.55;;;1.83;;
61756;SDS011;57225;61.460;24.060;2022-09-17T01:19:47;2.75;;;1.83;;
61756;SDS011;57225;61.460;24.060;2022-09-17T01:29:22;3.88;;;2.00;;
61756;SDS011;57225;61.460;24.060;2022-09-17T01:31:58;2.30;;;1.90;;
61756;SDS011;57225;61.460;24.060;2022-09-17T01:35:04;2.53;;;2.00;;
61756;SDS011;57225;61.460;24.060;2022-09-17T01:46:50;2.78;;;2.03;;
61756;SDS011;57225;61.460;24.060;2022-09-17T01:49:39;2.53;;;2.13;;
61756;SDS011;57225;61.460;24.060;2022-09-17T01:52:24;4.40;;;1.95;;
61756;SDS011;57225;61.460;24.060;2022-09-17T01:55:13;2.10;;;1.90;;
61756;SDS011;57225;61.460;24.060;2022-09-17T02:01:06;2.25;;;1.90;;
61756;SDS011;57225;61.460;24.060;2022-09-17T02:06:46;3.42;;;2.00;;
61756;SDS011;57225;61.460;24.060;2022-09-17T02:09:41;8.32;;;1.90;;
61756;SDS011;57225;61.460;24.060;2022-09-17T02:13:12;2.47;;;1.98;;
61756;SDS011;57225;61.460;24.060;2022-09-17T02:15:45;2.80;;;2.10;;
61756;SDS011;57225;61.460;24.060;2022-09-17T02:25:08;3.22;;;2.25;;
61756;SDS011;57225;61.460;24.060;2022-09-17T02:30:53;3.92;;;2.20;;
61756;SDS011;57225;61.460;24.060;2022-09-17T02:33:38;2.30;;;2.00;;
61756;SDS011;57225;61.460;24.060;2022-09-17T02:36:24;2.40;;;2.10;;
61756;SDS011;57225;61.460;24.060;2022-09-17T02:39:09;3.08;;;2.30;;
61756;SDS011;57225;61.460;24.060;2022-09-17T02:42:02;3.22;;;2.20;;
61756;SDS011;57225;61.460;24.060;2022-09-17T02:51:04;3.13;;;1.80;;
61756;SDS011;57225;61.460;24.060;2022-09-17T02:57:19;2.88;;;2.17;;
61756;SDS011;57225;61.460;24.060;2022-09-17T03:00:11;2.88;;;2.22;;
61756;SDS011;57225;61.460;24.060;2022-09-17T03:03:01;3.83;;;2.92;;
61756;SDS011;57225;61.460;24.060;2022-09-17T03:05:50;4.40;;;2.88;;
61756;SDS011;57225;61.460;24.060;2022-09-17T03:08:40;4.25;;;3.47;;
61756;SDS011;57225;61.460;24.060;2022-09-17T03:11:25;4.53;;;3.35;;
61756;SDS011;57225;61.460;24.060;2022-09-17T03:14:10;5.60;;;3.00;;
61756;SDS011;57225;61.460;24.060;2022-09-17T03:16:54;3.88;;;3.13;;
61756;SDS011;57225;61.460;24.060;2022-09-17T03:19:39;3.30;;;2.80;;
61756;SDS011;57225;61.460;24.060;2022-09-17T03:22:23;4.25;;;3.35;;
61756;SDS011;57225;61.460;24.060;2022-09-17T03:25:08;3.92;;;3.03;;
61756;SDS011;57225;61.460;24.060;2022-09-17T03:27:52;3.10;;;2.60;;
61756;SDS011;57225;61.460;24.060;2022-09-17T03:30:37;3.50;;;2.83;;
61756;SDS011;57225;61.460;24.060;2022-09-17T03:33:21;3.17;;;2.80;;
61756;SDS011;57225;61.460;24.060;2022-09-17T03:36:05;3.70;;;2.25;;
61756;SDS011;57225;61.460;24.060;2022-09-17T03:38:56;3.00;;;2.45;;
61756;SDS011;57225;61.460;24.060;2022-09-17T03:41:41;3.22;;;2.22;;
61756;SDS011;57225;61.460;24.060;2022-09-17T03:44:25;2.50;;;2.05;;
61756;SDS011;57225;61.460;24.060;2022-09-17T03:47:10;2.13;;;1.92;;
61756;SDS011;57225;61.460;24.060;2022-09-17T03:49:55;2.10;;;1.83;;
61756;SDS011;57225;61.460;24.060;2022-09-17T03:52:41;2.03;;;1.83;;
61756;SDS011;57225;61.460;24.060;2022-09-17T03:55:26;2.40;;;2.03;;
61756;SDS011;57225;61.460;24.060;2022-09-17T03:58:10;2.28;;;1.90;;
61756;SDS011;57225;61.460;24.060;2022-09-17T04:00:55;2.70;;;1.85;;
61756;SDS011;57225;61.460;24.060;2022-09-17T04:03:40;2.00;;;1.70;;
61756;SDS011;57225;61.460;24.060;2022-09-17T04:06:25;1.75;;;1.60;;
61756;SDS011;57225;61.460;24.060;2022-09-17T04:09:09;2.17;;;1.40;;
61756;SDS011;57225;61.460;24.060;2022-09-17T04:11:53;3.63;;;1.85;;
61756;SDS011;57225;61.460;24.060;2022-09-17T04:14:38;3.15;;;1.40;;
61756;SDS011;57225;61.460;24.060;2022-09-17T04:17:23;3.88;;;2.25;;
61756;SDS011;57225;61.460;24.060;2022-09-17T04:20:08;3.97;;;2.15;;
61756;SDS011;57225;61.460;24.060;2022-09-17T04:22:52;3.65;;;2.60;;
61756;SDS011;57225;61.460;24.060;2022-09-17T04:25:37;3.92;;;2.78;;
61756;SDS011;57225;61.460;24.060;2022-09-17T04:28:21;4.95;;;2.63;;
61756;SDS011;57225;61.460;24.060;2022-09-17T04:31:06;5.93;;;2.85;;
61756;SDS011;57225;61.460;24.060;2022-09-17T04:33:50;3.95;;;2.88;;
61756;SDS011;57225;61.460;24.060;2022-09-17T04:36:35;5.88;;;3.20;;
61756;SDS011;57225;61.460;24.060;2022-09-17T04:39:19;3.28;;;2.50;;
61756;SDS011;57225;61.460;24.060;2022-09-17T04:42:04;3.70;;;2.50;;
61756;SDS011;57225;61.460;24.060;2022-09-17T04:44:48;2.85;;;2.20;;
61756;SDS011;57225;61.460;24.060;2022-09-17T04:47:33;2.47;;;2.13;;
61756;SDS011;57225;61.460;24.060;2022-09-17T04:50:17;2.13;;;1.92;;
61756;SDS011;57225;61.460;24.060;2022-09-17T04:53:02;3.03;;;1.95;;
61756;SDS011;57225;61.460;24.060;2022-09-17T04:55:46;2.00;;;1.80;;
61756;SDS011;57225;61.460;24.060;2022-09-17T04:58:31;1.80;;;1.60;;
61756;SDS011;57225;61.460;24.060;2022-09-17T05:01:15;1.75;;;1.48;;
61756;SDS011;57225;61.460;24.060;2022-09-17T05:04:01;2.35;;;1.42;;
61756;SDS011;57225;61.460;24.060;2022-09-17T05:06:45;2.13;;;1.55;;
61756;SDS011;57225;61.460;24.060;2022-09-17T05:09:30;1.67;;;1.40;;
61756;SDS011;57225;61.460;24.060;2022-09-17T05:12:14;1.50;;;1.20;;
61756;SDS011;57225;61.460;24.060;2022-09-17T05:14:58;2.60;;;1.33;;
61756;SDS011;57225;61.460;24.060;2022-09-17T05:17:43;1.50;;;1.10;;
61756;SDS011;57225;61.460;24.060;2022-09-17T05:20:28;1.20;;;1.10;;
61756;SDS011;57225;61.460;24.060;2022-09-17T05:23:12;1.20;;;1.10;;
61756;SDS011;57225;61.460;24.060;2022-09-17T05:26:00;1.20;;;1.10;;
61756;SDS011;57225;61.460;24.060;2022-09-17T05:28:44;1.15;;;1.05;;
61756;SDS011;57225;61.460;24.060;2022-09-17T05:31:29;1.88;;;1.05;;
61756;SDS011;57225;61.460;24.060;2022-09-17T05:34:13;0.85;;;0.85;;
61756;SDS011;57225;61.460;24.060;2022-09-17T05:36:58;0.70;;;0.70;;
61756;SDS011;57225;61.460;24.060;2022-09-17T05:39:42;1.27;;;1.05;;
61756;SDS011;57225;61.460;24.060;2022-09-17T05:42:27;1.15;;;0.80;;
61756;SDS011;57225;61.460;24.060;2022-09-17T05:45:12;2.55;;;0.63;;
61756;SDS011;57225;61.460;24.060;2022-09-17T05:47:57;1.15;;;0.80;;
61756;SDS011;57225;61.460;24.060;2022-09-17T05:50:42;3.05;;;0.65;;
61756;SDS011;57225;61.460;24.060;2022-09-17T05:53:27;0.63;;;0.63;;
61756;SDS011;57225;61.460;24.060;2022-09-17T05:56:11;1.38;;;0.60;;
61756;SDS011;57225;61.460;24.060;2022-09-17T05:58:56;2.65;;;0.52;;
61756;SDS011;57225;61.460;24.060;2022-09-17T06:01:41;0.60;;;0.60;;
61756;SDS011;57225;61.460;24.060;2022-09-17T06:04:25;0.75;;;0.52;;
61756;SDS011;57225;61.460;24.060;2022-09-17T06:07:10;2.50;;;1.30;;
61756;SDS011;57225;61.460;24.060;2022-09-17T06:09:54;3.90;;;2.03;;
61756;SDS011;57225;61.460;24.060;2022-09-17T06:12:38;1.50;;;0.82;;
61756;SDS011;57225;61.460;24.060;2022-09-17T06:15:24;1.75;;;0.80;;
61756;SDS011;57225;61.460;24.060;2022-09-17T06:18:09;2.20;;;0.82;;
61756;SDS011;57225;61.460;24.060;2022-09-17T06:20:54;1.45;;;0.80;;
61756;SDS011;57225;61.460;24.060;2022-09-17T06:23:39;2.05;;;0.75;;
61756;SDS011;57225;61.460;24.060;2022-09-17T06:26:26;0.85;;;0.70;;
61756;SDS011;57225;61.460;24.060;2022-09-17T06:29:10;1.52;;;1.10;;
61756;SDS011;57225;61.460;24.060;2022-09-17T06:31:57;1.60;;;1.00;;
61756;SDS011;57225;61.460;24.060;2022-09-17T06:34:42;0.80;;;0.80;;
61756;SDS011;57225;61.460;24.060;2022-09-17T06:37:27;0.90;;;0.60;;
61756;SDS011;57225;61.460;24.060;2022-09-17T06:40:13;1.95;;;0.90;;
61756;SDS011;57225;61.460;24.060;2022-09-17T06:42:58;1.85;;;0.80;;
61756;SDS011;57225;61.460;24.060;2022-09-17T06:45:43;2.63;;;0.50;;
61756;SDS011;57225;61.460;24.060;2022-09-17T06:48:28;2.28;;;0.77;;
61756;SDS011;57225;61.460;24.060;2022-09-17T06:51:13;1.25;;;0.60;;
61756;SDS011;57225;61.460;24.060;2022-09-17T06:53:57;0.95;;;0.85;;
61756;SDS011;57225;61.460;24.060;2022-09-17T06:56:42;1.70;;;0.93;;
61756;SDS011;57225;61.460;24.060;2022-09-17T06:59:30;1.15;;;0.77;;
61756;SDS011;57225;61.460;24.060;2022-09-17T07:02:14;2.40;;;0.80;;
61756;SDS011;57225;61.460;24.060;2022-09-17T07:04:59;1.02;;;0.70;;
61756;SDS011;57225;61.460;24.060;2022-09-17T07:07:43;2.00;;;0.90;;
61756;SDS011;57225;61.460;24.060;2022-09-17T07:10:28;1.27;;;0.90;;
61756;SDS011;57225;61.460;24.060;2022-09-17T07:13:13;2.17;;;0.98;;
61756;SDS011;57225;61.460;24.060;2022-09-17T07:15:58;2.53;;;1.00;;
61756;SDS011;57225;61.460;24.060;2022-09-17T07:18:43;0.60;;;0.60;;
61756;SDS011;57225;61.460;24.060;2022-09-17T07:21:28;1.02;;;0.70;;
61756;SDS011;57225;61.460;24.060;2022-09-17T07:24:13;4.68;;;1.10;;
61756;SDS011;57225;61.460;24.060;2022-09-17T07:26:57;1.15;;;0.80;;
61756;SDS011;57225;61.460;24.060;2022-09-17T07:29:42;2.47;;;0.93;;
61756;SDS011;57225;61.460;24.060;2022-09-17T07:32:27;3.97;;;1.27;;
61756;SDS011;57225;61.460;24.060;2022-09-17T07:35:13;2.10;;;1.50;;
61756;SDS011;57225;61.460;24.060;2022-09-17T07:37:57;1.35;;;1.00;;
61756;SDS011;57225;61.460;24.060;2022-09-17T07:40:42;2.20;;;1.23;;
61756;SDS011;57225;61.460;24.060;2022-09-17T07:43:27;1.00;;;0.90;;
61756;SDS011;57225;61.460;24.060;2022-09-17T07:49:01;2.88;;;0.90;;
61756;SDS011;57225;61.460;24.060;2022-09-17T07:51:46;1.85;;;0.95;;
61756;SDS011;57225;61.460;24.060;2022-09-17T07:54:33;1.23;;;1.05;;
61756;SDS011;57225;61.460;24.060;2022-09-17T07:57:19;1.40;;;0.85;;
61756;SDS011;57225;61.460;24.060;2022-09-17T08:00:04;2.42;;;1.10;;
61756;SDS011;57225;61.460;24.060;2022-09-17T08:02:53;2.30;;;0.80;;
61756;SDS011;57225;61.460;24.060;2022-09-17T08:05:38;0.82;;;0.75;;
61756;SDS011;57225;61.460;24.060;2022-09-17T08:08:22;1.30;;;0.80;;
61756;SDS011;57225;61.460;24.060;2022-09-17T08:11:08;2.70;;;1.17;;
61756;SDS011;57225;61.460;24.060;2022-09-17T08:13:54;0.80;;;0.77;;
61756;SDS011;57225;61.460;24.060;2022-09-17T08:16:39;1.38;;;0.90;;
61756;SDS011;57225;61.460;24.060;2022-09-17T08:19:24;0.90;;;0.80;;
61756;SDS011;57225;61.460;24.060;2022-09-17T08:22:08;0.80;;;0.80;;
61756;SDS011;57225;61.460;24.060;2022-09-17T08:24:53;0.90;;;0.52;;
61756;SDS011;57225;61.460;24.060;2022-09-17T08:27:37;0.55;;;0.55;;
61756;SDS011;57225;61.460;24.060;2022-09-17T08:30:22;1.33;;;0.65;;
61756;SDS011;57225;61.460;24.060;2022-09-17T08:33:06;1.05;;;0.70;;
61756;SDS011;57225;61.460;24.060;2022-09-17T08:35:54;0.88;;;0.70;;
61756;SDS011;57225;61.460;24.060;2022-09-17T08:38:42;0.93;;;0.82;;
61756;SDS011;57225;61.460;24.060;2022-09-17T08:41:41;1.55;;;0.98;;
61756;SDS011;57225;61.460;24.060;2022-09-17T08:44:37;1.38;;;0.70;;
61756;SDS011;57225;61.460;24.060;2022-09-17T08:47:28;0.85;;;0.50;;
61756;SDS011;57225;61.460;24.060;2022-09-17T08:50:28;1.17;;;0.60;;
61756;SDS011;57225;61.460;24.060;2022-09-17T08:53:18;2.78;;;0.98;;
61756;SDS011;57225;61.460;24.060;2022-09-17T08:56:14;0.63;;;0.52;;
61756;SDS011;57225;61.460;24.060;2022-09-17T08:59:05;1.02;;;0.60;;
61756;SDS011;57225;61.460;24.060;2022-09-17T09:05:14;3.28;;;0.80;;
61756;SDS011;57225;61.460;24.060;2022-09-17T09:08:02;0.90;;;0.50;;
61756;SDS011;57225;61.460;24.060;2022-09-17T09:10:54;0.82;;;0.50;;
61756;SDS011;57225;61.460;24.060;2022-09-17T09:13:40;1.88;;;0.60;;
61756;SDS011;57225;61.460;24.060;2022-09-17T09:16:30;0.63;;;0.57;;
61756;SDS011;57225;61.460;24.060;2022-09-17T09:19:23;1.95;;;0.68;;
61756;SDS011;57225;61.460;24.060;2022-09-17T09:25:24;2.10;;;0.50;;
61756;SDS011;57225;61.460;24.060;2022-09-17T09:28:29;1.23;;;0.50;;
61756;SDS011;57225;61.460;24.060;2022-09-17T09:34:28;1.27;;;0.50;;
61756;SDS011;57225;61.460;24.060;2022-09-17T09:37:19;1.20;;;0.43;;
61756;SDS011;57225;61.460;24.060;2022-09-17T09:40:50;2.53;;;0.57;;
61756;SDS011;57225;61.460;24.060;2022-09-17T09:43:44;0.73;;;0.40;;
61756;SDS011;57225;61.460;24.060;2022-09-17T09:58:36;0.60;;;0.45;;
61756;SDS011;57225;61.460;24.060;2022-09-17T10:01:24;1.90;;;0.93;;
61756;SDS011;57225;61.460;24.060;2022-09-17T10:04:16;0.43;;;0.40;;
61756;SDS011;57225;61.460;24.060;2022-09-17T10:07:05;0.63;;;0.50;;
61756;SDS011;57225;61.460;24.060;2022-09-17T10:09:51;0.50;;;0.50;;
61756;SDS011;57225;61.460;24.060;2022-09-17T10:13:04;1.02;;;0.65;;
61756;SDS011;57225;61.460;24.060;2022-09-17T10:15:51;1.42;;;0.40;;
61756;SDS011;57225;61.460;24.060;2022-09-17T10:18:35;1.17;;;0.90;;
61756;SDS011;57225;61.460;24.060;2022-09-17T10:21:30;0.80;;;0.77;;
61756;SDS011;57225;61.460;24.060;2022-09-17T10:24:27;0.60;;;0.60;;
61756;SDS011;57225;61.460;24.060;2022-09-17T10:27:17;0.73;;;0.60;;
61756;SDS011;57225;61.460;24.060;2022-09-17T10:36:00;0.70;;;0.40;;
61756;SDS011;57225;61.460;24.060;2022-09-17T10:38:48;0.80;;;0.50;;
61756;SDS011;57225;61.460;24.060;2022-09-17T10:41:33;0.60;;;0.43;;
61756;SDS011;57225;61.460;24.060;2022-09-17T10:44:20;1.05;;;0.50;;
61756;SDS011;57225;61.460;24.060;2022-09-17T10:47:13;0.63;;;0.32;;
61756;SDS011;57225;61.460;24.060;2022-09-17T10:50:21;1.88;;;0.40;;
61756;SDS011;57225;61.460;24.060;2022-09-17T10:53:17;0.47;;;0.22;;
61756;SDS011;57225;61.460;24.060;2022-09-17T10:56:14;2.25;;;0.22;;
61756;SDS011;57225;61.460;24.060;2022-09-17T10:59:22;1.10;;;0.40;;
61756;SDS011;57225;61.460;24.060;2022-09-17T11:02:22;3.08;;;0.32;;
61756;SDS011;57225;61.460;24.060;2022-09-17T11:05:33;0.40;;;0.25;;
61756;SDS011;57225;61.460;24.060;2022-09-17T11:32:59;2.28;;;0.70;;
61756;SDS011;57225;61.460;24.060;2022-09-17T11:35:52;0.60;;;0.55;;
61756;SDS011;57225;61.460;24.060;2022-09-17T11:38:49;1.88;;;0.90;;
61756;SDS011;57225;61.460;24.060;2022-09-17T11:41:39;1.25;;;0.65;;
61756;SDS011;57225;61.460;24.060;2022-09-17T11:44:29;9.05;;;1.20;;
61756;SDS011;57225;61.460;24.060;2022-09-17T11:47:28;1.95;;;0.80;;
61756;SDS011;57225;61.460;24.060;2022-09-17T11:53:27;1.13;;;0.70;;
61756;SDS011;57225;61.460;24.060;2022-09-17T12:02:23;2.17;;;1.23;;
61756;SDS011;57225;61.460;24.060;2022-09-17T12:05:21;2.80;;;1.15;;
61756;SDS011;57225;61.460;24.060;2022-09-17T12:11:17;2.80;;;0.70;;
61756;SDS011;57225;61.460;24.060;2022-09-17T12:14:10;0.70;;;0.60;;
61756;SDS011;57225;61.460;24.060;2022-09-17T12:17:01;1.83;;;0.60;;
61756;SDS011;57225;61.460;24.060;2022-09-17T12:19:49;0.63;;;0.50;;
61756;SDS011;57225;61.460;24.060;2022-09-17T12:22:40;3.40;;;0.52;;
61756;SDS011;57225;61.460;24.060;2022-09-17T12:25:27;3.13;;;1.10;;
61756;SDS011;57225;61.460;24.060;2022-09-17T12:28:50;2.47;;;0.70;;
61756;SDS011;57225;61.460;24.060;2022-09-17T12:31:44;1.50;;;0.85;;
61756;SDS011;57225;61.460;24.060;2022-09-17T12:40:57;1.77;;;0.90;;
61756;SDS011;57225;61.460;24.060;2022-09-17T12:43:48;0.90;;;0.85;;
61756;SDS011;57225;61.460;24.060;2022-09-17T12:52:45;0.95;;;0.70;;
61756;SDS011;57225;61.460;24.060;2022-09-17T12:55:58;1.20;;;0.75;;
61756;SDS011;57225;61.460;24.060;2022-09-17T12:59:15;3.22;;;0.73;;
61756;SDS011;57225;61.460;24.060;2022-09-17T13:02:16;0.63;;;0.60;;
61756;SDS011;57225;61.460;24.060;2022-09-17T13:05:20;0.80;;;0.60;;
61756;SDS011;57225;61.460;24.060;2022-09-17T13:17:42;0.98;;;0.70;;
61756;SDS011;57225;61.460;24.060;2022-09-17T13:20:37;1.58;;;0.60;;
61756;SDS011;57225;61.460;24.060;2022-09-17T13:26:20;1.23;;;0.70;;
61756;SDS011;57225;61.460;24.060;2022-09-17T13:38:06;2.17;;;1.00;;
61756;SDS011;57225;61.460;24.060;2022-09-17T13:40:51;3.85;;;1.20;;
61756;SDS011;57225;61.460;24.060;2022-09-17T13:44:07;1.88;;;1.08;;
61756;SDS011;57225;61.460;24.060;2022-09-17T13:46:53;1.77;;;1.30;;
61756;SDS011;57225;61.460;24.060;2022-09-17T13:49:57;2.15;;;1.02;;
61756;SDS011;57225;61.460;24.060;2022-09-17T13:52:45;3.05;;;1.10;;
61756;SDS011;57225;61.460;24.060;2022-09-17T13:58:29;1.98;;;1.00;;
61756;SDS011;57225;61.460;24.060;2022-09-17T14:01:15;0.90;;;0.65;;
61756;SDS011;57225;61.460;24.060;2022-09-17T14:13:44;3.33;;;0.70;;
61756;SDS011;57225;61.460;24.060;2022-09-17T14:22:30;1.60;;;1.00;;
61756;SDS011;57225;61.460;24.060;2022-09-17T14:25:15;2.50;;;0.80;;
61756;SDS011;57225;61.460;24.060;2022-09-17T14:30:59;0.90;;;0.70;;
61756;SDS011;57225;61.460;24.060;2022-09-17T14:33:45;6.80;;;0.70;;
61756;SDS011;57225;61.460;24.060;2022-09-17T14:36:32;2.45;;;0.80;;
61756;SDS011;57225;61.460;24.060;2022-09-17T14:39:22;1.45;;;0.90;;
61756;SDS011;57225;61.460;24.060;2022-09-17T14:42:14;1.60;;;1.02;;
61756;SDS011;57225;61.460;24.060;2022-09-17T14:45:06;1.65;;;1.13;;
61756;SDS011;57225;61.460;24.060;2022-09-17T14:48:18;4.65;;;0.95;;
61756;SDS011;57225;61.460;24.060;2022-09-17T14:56:49;3.38;;;1.10;;
61756;SDS011;57225;61.460;24.060;2022-09-17T15:02:42;1.67;;;0.90;;
61756;SDS011;57225;61.460;24.060;2022-09-17T15:08:22;1.60;;;0.90;;
61756;SDS011;57225;61.460;24.060;2022-09-17T15:11:09;2.42;;;0.80;;
61756;SDS011;57225;61.460;24.060;2022-09-17T15:13:55;1.95;;;0.90;;
61756;SDS011;57225;61.460;24.060;2022-09-17T15:16:45;4.22;;;1.23;;
61756;SDS011;57225;61.460;24.060;2022-09-17T15:19:36;3.17;;;1.05;;
61756;SDS011;57225;61.460;24.060;2022-09-17T15:22:22;4.85;;;1.00;;
61756;SDS011;57225;61.460;24.060;2022-09-17T15:25:18;2.78;;;1.30;;
61756;SDS011;57225;61.460;24.060;2022-09-17T15:28:30;2.03;;;1.13;;
61756;SDS011;57225;61.460;24.060;2022-09-17T15:34:02;7.13;;;1.40;;
61756;SDS011;57225;61.460;24.060;2022-09-17T15:40:00;2.58;;;1.13;;
61756;SDS011;57225;61.460;24.060;2022-09-17T15:43:17;2.17;;;0.85;;
61756;SDS011;57225;61.460;24.060;2022-09-17T15:46:25;0.93;;;0.80;;
61756;SDS011;57225;61.460;24.060;2022-09-17T15:49:28;3.03;;;0.98;;
61756;SDS011;57225;61.460;24.060;2022-09-17T15:52:28;3.65;;;1.00;;
61756;SDS011;57225;61.460;24.060;2022-09-17T15:55:33;0.85;;;0.75;;
61756;SDS011;57225;61.460;24.060;2022-09-17T15:58:24;2.13;;;1.48;;
61756;SDS011;57225;61.460;24.060;2022-09-17T16:04:16;1.75;;;1.05;;
61756;SDS011;57225;61.460;24.060;2022-09-17T16:09:55;1.30;;;0.98;;
61756;SDS011;57225;61.460;24.060;2022-09-17T16:12:41;3.97;;;1.20;;
61756;SDS011;57225;61.460;24.060;2022-09-17T16:15:26;1.00;;;0.90;;
61756;SDS011;57225;61.460;24.060;2022-09-17T16:18:11;3.22;;;1.23;;
61756;SDS011;57225;61.460;24.060;2022-09-17T16:20:57;2.05;;;1.27;;
61756;SDS011;57225;61.460;24.060;2022-09-17T16:23:42;1.80;;;1.20;;
61756;SDS011;57225;61.460;24.060;2022-09-17T16:26:32;1.92;;;1.38;;
61756;SDS011;57225;61.460;24.060;2022-09-17T16:29:17;1.27;;;1.08;;
61756;SDS011;57225;61.460;24.060;2022-09-17T16:32:03;1.83;;;1.30;;
61756;SDS011;57225;61.460;24.060;2022-09-17T16:34:48;2.50;;;1.40;;
61756;SDS011;57225;61.460;24.060;2022-09-17T16:37:32;2.08;;;1.38;;
61756;SDS011;57225;61.460;24.060;2022-09-17T16:40:18;3.50;;;1.50;;
61756;SDS011;57225;61.460;24.060;2022-09-17T16:43:03;2.67;;;1.42;;
61756;SDS011;57225;61.460;24.060;2022-09-17T16:46:00;3.10;;;1.35;;
61756;SDS011;57225;61.460;24.060;2022-09-17T16:48:49;1.92;;;1.50;;
61756;SDS011;57225;61.460;24.060;2022-09-17T16:51:33;2.97;;;1.60;;
61756;SDS011;57225;61.460;24.060;2022-09-17T16:54:18;2.65;;;1.63;;
61756;SDS011;57225;61.460;24.060;2022-09-17T16:57:02;2.97;;;2.00;;
61756;SDS011;57225;61.460;24.060;2022-09-17T16:59:47;2.97;;;1.90;;
61756;SDS011;57225;61.460;24.060;2022-09-17T17:02:32;2.75;;;2.00;;
61756;SDS011;57225;61.460;24.060;2022-09-17T17:05:16;3.42;;;2.50;;
61756;SDS011;57225;61.460;24.060;2022-09-17T17:08:01;8.00;;;4.28;;
61756;SDS011;57225;61.460;24.060;2022-09-17T17:10:47;9.10;;;6.07;;
61756;SDS011;57225;61.460;24.060;2022-09-17T17:13:33;9.15;;;6.65;;
61756;SDS011;57225;61.460;24.060;2022-09-17T17:16:17;7.43;;;5.40;;
61756;SDS011;57225;61.460;24.060;2022-09-17T17:19:02;6.13;;;3.92;;
61756;SDS011;57225;61.460;24.060;2022-09-17T17:21:48;5.38;;;3.20;;
61756;SDS011;57225;61.460;24.060;2022-09-17T17:24:33;4.30;;;3.22;;
61756;SDS011;57225;61.460;24.060;2022-09-17T17:27:17;7.10;;;3.33;;
61756;SDS011;57225;61.460;24.060;2022-09-17T17:30:02;4.40;;;3.28;;
61756;SDS011;57225;61.460;24.060;2022-09-17T17:32:50;3.72;;;2.75;;
61756;SDS011;57225;61.460;24.060;2022-09-17T17:35:37;3.72;;;2.60;;
61756;SDS011;57225;61.460;24.060;2022-09-17T17:38:22;3.10;;;2.20;;
61756;SDS011;57225;61.460;24.060;2022-09-17T17:41:08;2.83;;;2.17;;
61756;SDS011;57225;61.460;24.060;2022-09-17T17:43:54;2.85;;;2.20;;
61756;SDS011;57225;61.460;24.060;2022-09-17T17:46:40;3.53;;;2.42;;
61756;SDS011;57225;61.460;24.060;2022-09-17T17:49:26;3.20;;;2.50;;
61756;SDS011;57225;61.460;24.060;2022-09-17T17:52:11;6.75;;;2.83;;
61756;SDS011;57225;61.460;24.060;2022-09-17T17:54:55;4.60;;;2.92;;
61756;SDS011;57225;61.460;24.060;2022-09-17T17:57:39;4.97;;;3.03;;
61756;SDS011;57225;61.460;24.060;2022-09-17T18:00:24;5.13;;;3.15;;
61756;SDS011;57225;61.460;24.060;2022-09-17T18:03:08;4.07;;;2.95;;
61756;SDS011;57225;61.460;24.060;2022-09-17T18:05:53;7.47;;;3.47;;
61756;SDS011;57225;61.460;24.060;2022-09-17T18:08:41;4.93;;;3.57;;
61756;SDS011;57225;61.460;24.060;2022-09-17T18:11:26;5.50;;;3.50;;
61756;SDS011;57225;61.460;24.060;2022-09-17T18:14:11;9.00;;;4.05;;
61756;SDS011;57225;61.460;24.060;2022-09-17T18:16:56;7.75;;;3.92;;
61756;SDS011;57225;61.460;24.060;2022-09-17T18:19:40;9.80;;;4.28;;
61756;SDS011;57225;61.460;24.060;2022-09-17T18:22:25;5.85;;;3.92;;
61756;SDS011;57225;61.460;24.060;2022-09-17T18:25:09;9.18;;;4.68;;
61756;SDS011;57225;61.460;24.060;2022-09-17T18:27:54;7.32;;;4.10;;
61756;SDS011;57225;61.460;24.060;2022-09-17T18:30:38;9.48;;;4.28;;
61756;SDS011;57225;61.460;24.060;2022-09-17T18:33:23;12.88;;;9.07;;
61756;SDS011;57225;61.460;24.060;2022-09-17T18:36:09;7.72;;;5.32;;
61756;SDS011;57225;61.460;24.060;2022-09-17T18:38:54;6.82;;;4.65;;
61756;SDS011;57225;61.460;24.060;2022-09-17T18:41:43;9.43;;;4.50;;
61756;SDS011;57225;61.460;24.060;2022-09-17T18:44:28;5.28;;;4.10;;
61756;SDS011;57225;61.460;24.060;2022-09-17T18:47:12;4.28;;;3.35;;
61756;SDS011;57225;61.460;24.060;2022-09-17T18:49:57;4.13;;;3.33;;
61756;SDS011;57225;61.460;24.060;2022-09-17T18:52:42;4.38;;;3.25;;
61756;SDS011;57225;61.460;24.060;2022-09-17T18:55:26;6.00;;;3.80;;
61756;SDS011;57225;61.460;24.060;2022-09-17T18:58:12;8.57;;;3.72;;
61756;SDS011;57225;61.460;24.060;2022-09-17T19:00:56;4.60;;;3.20;;
61756;SDS011;57225;61.460;24.060;2022-09-17T19:03:41;6.40;;;3.50;;
61756;SDS011;57225;61.460;24.060;2022-09-17T19:06:26;5.93;;;3.30;;
61756;SDS011;57225;61.460;24.060;2022-09-17T19:09:11;5.30;;;2.83;;
61756;SDS011;57225;61.460;24.060;2022-09-17T19:11:55;3.40;;;2.67;;
61756;SDS011;57225;61.460;24.060;2022-09-17T19:14:40;3.78;;;2.58;;
61756;SDS011;57225;61.460;24.060;2022-09-17T19:17:24;4.22;;;2.20;;
61756;SDS011;57225;61.460;24.060;2022-09-17T19:20:10;3.97;;;2.42;;
61756;SDS011;57225;61.460;24.060;2022-09-17T19:22:54;2.78;;;2.05;;
61756;SDS011;57225;61.460;24.060;2022-09-17T19:25:39;3.63;;;2.10;;
61756;SDS011;57225;61.460;24.060;2022-09-17T19:28:23;2.60;;;1.98;;
61756;SDS011;57225;61.460;24.060;2022-09-17T19:31:10;4.55;;;1.95;;
61756;SDS011;57225;61.460;24.060;2022-09-17T19:33:59;3.03;;;2.10;;
61756;SDS011;57225;61.460;24.060;2022-09-17T19:36:45;2.80;;;2.10;;
61756;SDS011;57225;61.460;24.060;2022-09-17T19:39:29;3.55;;;2.33;;
61756;SDS011;57225;61.460;24.060;2022-09-17T19:42:14;4.95;;;2.10;;
61756;SDS011;57225;61.460;24.060;2022-09-17T19:44:58;4.28;;;2.45;;
61756;SDS011;57225;61.460;24.060;2022-09-17T19:47:43;3.92;;;2.50;;
61756;SDS011;57225;61.460;24.060;2022-09-17T19:50:28;8.88;;;2.72;;
61756;SDS011;57225;61.460;24.060;2022-09-17T19:53:15;4.00;;;2.67;;
61756;SDS011;57225;61.460;24.060;2022-09-17T19:55:59;4.60;;;3.30;;